Time;durP1;ratioP1;P1;durP2;ratioP2;P2;SDS_P1;SDS_P2;PMS_P1;PMS_P2;Temp;Humidity;BMP_temperature;BMP_pressure;BME280_temperature;BME280_humidity;BME280_pressure;Samples;Min_cycle;Max_cycle;Signal;HPM_P1;HPM_P2
2021/12/01 00:00:13;;;;;;;6.40;1.17;;;;;;;0.74;100.00;99611.28;5023289;28;20449;-81
2021/12/01 00:02:39;;;;;;;9.50;1.60;;;;;;;0.82;100.00;99605.28;5013749;28;20223;-81
2021/12/01 00:05:07;;;;;;;7.70;1.27;;;;;;;0.82;100.00;99612.97;5019432;28;20221;-79
2021/12/01 00:07:35;;;;;;;4.57;1.00;;;;;;;0.78;100.00;99608.72;5020107;28;20219;-78
2021/12/01 00:10:04;;;;;;;5.67;1.50;;;;;;;0.73;100.00;99611.28;5018308;28;20208;-79
2021/12/01 00:12:30;;;;;;;4.83;1.37;;;;;;;0.64;100.00;99609.59;5021132;28;20912;-79
2021/12/01 00:14:57;;;;;;;4.30;1.20;;;;;;;0.59;100.00;99611.31;5018203;28;20209;-79
2021/12/01 00:17:23;;;;;;;5.13;1.40;;;;;;;0.54;100.00;99620.72;5020744;28;20217;-79
2021/12/01 00:19:49;;;;;;;3.77;1.03;;;;;;;0.49;100.00;99617.31;5020355;28;20208;-79
2021/12/01 00:22:16;;;;;;;7.27;1.27;;;;;;;0.41;100.00;99621.63;5021001;28;20209;-79
2021/12/01 00:24:42;;;;;;;5.37;1.30;;;;;;;0.38;100.00;99625.00;5024189;28;20204;-78
2021/12/01 00:27:10;;;;;;;8.30;1.50;;;;;;;0.36;100.00;99621.59;5017924;28;20216;-79
2021/12/01 00:29:36;;;;;;;5.70;1.40;;;;;;;0.34;100.00;99613.91;5024885;28;20261;-79
2021/12/01 00:32:04;;;;;;;6.30;1.40;;;;;;;0.35;100.00;99607.06;5021950;28;20564;-79
2021/12/01 00:34:32;;;;;;;7.33;1.50;;;;;;;0.41;100.00;99613.91;5021918;28;20203;-79
2021/12/01 00:36:59;;;;;;;5.47;1.50;;;;;;;0.43;100.00;99604.50;5018085;28;20208;-79
2021/12/01 00:39:25;;;;;;;4.23;1.30;;;;;;;0.44;100.00;99593.38;5017939;28;20200;-79
2021/12/01 00:41:52;;;;;;;3.47;1.27;;;;;;;0.39;100.00;99601.09;5021349;28;20214;-81
2021/12/01 00:44:20;;;;;;;9.23;1.80;;;;;;;0.39;100.00;99603.66;5018248;28;20339;-80
2021/12/01 00:46:54;;;;;;;9.83;1.67;;;;;;;0.33;100.00;99596.81;5018060;28;20213;-81
2021/12/01 00:49:20;;;;;;;4.13;1.20;;;;;;;0.29;100.00;99596.81;5021572;28;20290;-81
2021/12/01 00:51:47;;;;;;;9.37;1.43;;;;;;;0.22;100.00;99595.13;5021995;28;20215;-81
2021/12/01 00:54:13;;;;;;;3.67;1.17;;;;;;;0.15;100.00;99594.25;5020152;28;20234;-81
2021/12/01 00:56:40;;;;;;;11.90;2.20;;;;;;;0.10;100.00;99584.00;5016726;28;20862;-81
2021/12/01 00:59:06;;;;;;;5.97;1.10;;;;;;;0.06;100.00;99579.75;5019999;28;20295;-81
2021/12/01 01:01:34;;;;;;;8.20;2.07;;;;;;;-0.01;100.00;99578.88;5020830;28;20689;-81
2021/12/01 01:04:02;;;;;;;4.10;1.20;;;;;;;-0.02;100.00;99578.88;5020140;28;20225;-80
2021/12/01 01:06:28;;;;;;;4.87;1.33;;;;;;;-0.08;100.00;99572.03;5019451;28;20293;-80
2021/12/01 01:08:55;;;;;;;2.33;1.00;;;;;;;-0.13;100.00;99575.47;5021449;28;20216;-80
2021/12/01 01:16:51;;;;;;;7.33;1.57;;;;;;;-0.30;100.00;99565.19;5017685;28;20200;-80
2021/12/01 01:19:19;;;;;;;4.33;1.10;;;;;;;-0.33;100.00;99557.53;5019020;28;20686;-80
2021/12/01 01:21:49;;;;;;;4.03;1.17;;;;;;;-0.39;100.00;99559.22;5021538;28;20197;-80
2021/12/01 01:24:17;;;;;;;7.20;1.33;;;;;;;-0.41;100.00;99565.19;5020179;28;20231;-80
2021/12/01 01:26:44;;;;;;;5.50;1.67;;;;;;;-0.49;100.00;99560.06;5016970;28;20200;-80
2021/12/01 01:29:11;;;;;;;9.47;1.50;;;;;;;-0.48;100.00;99561.75;5020168;28;20306;-78
2021/12/01 01:31:38;;;;;;;5.27;1.30;;;;;;;-0.50;100.00;99560.06;5016685;28;20226;-80
2021/12/01 01:34:06;;;;;;;4.67;1.00;;;;;;;-0.52;100.00;99552.38;5019356;28;20243;-80
2021/12/01 01:36:32;;;;;;;6.27;1.20;;;;;;;-0.52;100.00;99554.06;5020355;28;20200;-80
2021/12/01 01:38:59;;;;;;;8.47;1.53;;;;;;;-0.52;100.00;99554.91;5019599;28;20214;-80
2021/12/01 01:41:26;;;;;;;4.07;1.40;;;;;;;-0.54;100.00;99560.91;5017243;28;20212;-80
2021/12/01 01:43:52;;;;;;;9.03;1.77;;;;;;;-0.58;100.00;99560.91;5018663;28;20228;-80
2021/12/01 01:46:20;;;;;;;4.97;1.30;;;;;;;-0.59;100.00;99561.72;5021794;28;20200;-80
2021/12/01 01:48:49;;;;;;;10.43;1.60;;;;;;;-0.62;100.00;99563.44;5017326;28;20227;-80
2021/12/01 01:51:19;;;;;;;8.10;1.20;;;;;;;-0.63;100.00;99560.03;5019375;28;20224;-80
2021/12/01 01:53:46;;;;;;;6.73;1.50;;;;;;;-0.64;100.00;99567.69;5017693;28;20220;-80
2021/12/01 01:56:12;;;;;;;7.63;1.53;;;;;;;-0.65;100.00;99558.28;5012447;28;20232;-80
2021/12/01 01:58:39;;;;;;;8.63;2.10;;;;;;;-0.65;100.00;99550.63;5015887;28;20200;-80
2021/12/01 02:01:09;;;;;;;7.20;1.30;;;;;;;-0.66;100.00;99562.56;5012051;28;20852;-80
2021/12/01 02:03:38;;;;;;;6.63;1.60;;;;;;;-0.64;100.00;99548.06;5021810;28;20326;-80
2021/12/01 02:06:06;;;;;;;17.73;1.93;;;;;;;-0.63;100.00;99554.91;5014338;28;20274;-80
2021/12/01 02:08:35;;;;;;;8.00;1.53;;;;;;;-0.62;100.00;99551.47;5016577;28;20323;-80
2021/12/01 02:11:05;;;;;;;6.83;1.67;;;;;;;-0.63;100.00;99548.94;5015549;28;20221;-80
2021/12/01 02:13:32;;;;;;;6.43;1.10;;;;;;;-0.58;100.00;99545.53;5016643;28;20310;-80
2021/12/01 02:15:59;;;;;;;11.10;1.80;;;;;;;-0.57;100.00;99531.84;5015516;28;20211;-80
2021/12/01 02:18:26;;;;;;;4.37;1.33;;;;;;;-0.55;100.00;99525.91;5022483;28;20202;-80
2021/12/01 02:21:06;;;;;;;9.50;1.60;;;;;;;-0.54;100.00;99525.91;5017004;28;20208;-80
2021/12/01 02:23:33;;;;;;;7.60;1.77;;;;;;;-0.51;100.00;99531.03;5009698;28;20232;-80
2021/12/01 02:26:00;;;;;;;8.70;1.43;;;;;;;-0.47;100.00;99529.34;5017755;28;20211;-80
2021/12/01 02:28:27;;;;;;;6.87;1.93;;;;;;;-0.45;100.00;99525.06;5010767;28;20208;-80
2021/12/01 02:30:53;;;;;;;7.60;1.90;;;;;;;-0.43;100.00;99524.19;5016364;28;20792;-81
2021/12/01 02:33:19;;;;;;;6.30;1.60;;;;;;;-0.36;100.00;99531.91;5018247;28;20227;-80
2021/12/01 02:35:46;;;;;;;9.93;1.70;;;;;;;-0.36;100.00;99522.50;5017471;28;20208;-80
2021/12/01 02:38:14;;;;;;;11.20;1.80;;;;;;;-0.30;100.00;99513.97;5018386;28;20210;-80
2021/12/01 02:40:41;;;;;;;10.80;2.23;;;;;;;-0.25;100.00;99507.13;5017167;28;20254;-80
2021/12/01 02:43:07;;;;;;;9.17;1.57;;;;;;;-0.23;100.00;99508.84;5016902;28;20232;-80
2021/12/01 02:45:33;;;;;;;9.23;2.03;;;;;;;-0.18;100.00;99498.59;5022967;28;20196;-78
2021/12/01 02:48:00;;;;;;;8.63;1.77;;;;;;;-0.13;100.00;99496.03;5015262;28;20232;-80
2021/12/01 02:50:26;;;;;;;9.07;1.67;;;;;;;-0.09;100.00;99488.34;5017896;28;20248;-80
2021/12/01 02:52:53;;;;;;;10.10;1.97;;;;;;;-0.06;100.00;99485.75;5019224;28;20571;-80
2021/12/01 02:55:21;;;;;;;7.83;1.50;;;;;;;-0.03;100.00;99485.75;5017019;28;20210;-80
2021/12/01 02:57:50;;;;;;;8.67;1.80;;;;;;;0.01;100.00;99484.06;5013021;28;20207;-80
2021/12/01 03:00:19;;;;;;;12.87;1.83;;;;;;;0.05;100.00;99478.06;5014282;28;20209;-80
2021/12/01 03:02:46;;;;;;;5.80;1.77;;;;;;;0.09;100.00;99463.53;5014323;28;20220;-80
2021/12/01 03:05:15;;;;;;;9.33;1.40;;;;;;;0.11;100.00;99455.00;5018529;28;20212;-80
2021/12/01 03:07:43;;;;;;;8.20;1.87;;;;;;;0.14;100.00;99454.13;5017322;28;20212;-80
2021/12/01 03:10:10;;;;;;;6.37;1.50;;;;;;;0.17;100.00;99444.69;5017596;28;20213;-80
2021/12/01 03:12:40;;;;;;;4.57;1.67;;;;;;;0.20;100.00;99453.28;5018041;28;20233;-80
2021/12/01 03:15:09;;;;;;;9.37;1.60;;;;;;;0.21;100.00;99439.56;5013401;28;20200;-80
2021/12/01 03:17:36;;;;;;;8.43;1.57;;;;;;;0.23;100.00;99445.53;5016543;28;20214;-80
2021/12/01 03:20:03;;;;;;;8.13;1.90;;;;;;;0.25;100.00;99438.72;5010661;28;20202;-80
2021/12/01 03:22:30;;;;;;;4.03;1.30;;;;;;;0.29;100.00;99436.13;5015540;28;20738;-80
2021/12/01 03:24:56;;;;;;;8.00;1.60;;;;;;;0.32;100.00;99425.88;5014642;28;20207;-80
2021/12/01 03:27:23;;;;;;;6.50;1.70;;;;;;;0.36;100.00;99429.28;5016334;28;20337;-80
2021/12/01 03:29:51;;;;;;;13.77;1.90;;;;;;;0.38;100.00;99428.41;5013298;28;20212;-80
2021/12/01 03:32:20;;;;;;;10.83;1.97;;;;;;;0.43;100.00;99425.81;5016368;28;20223;-80
2021/12/01 03:34:47;;;;;;;9.47;1.90;;;;;;;0.49;100.00;99424.94;5015742;28;20213;-80
2021/12/01 03:37:13;;;;;;;7.10;1.80;;;;;;;0.56;100.00;99419.78;5018683;28;20229;-81
2021/12/01 03:39:39;;;;;;;6.20;1.77;;;;;;;0.64;100.00;99414.63;5013025;28;20204;-80
2021/12/01 03:42:06;;;;;;;6.27;1.47;;;;;;;0.66;100.00;99407.75;5016532;28;20211;-81
2021/12/01 03:44:33;;;;;;;9.13;2.13;;;;;;;0.71;100.00;99402.63;5014304;28;20620;-81
2021/12/01 03:47:00;;;;;;;9.70;2.33;;;;;;;0.76;100.00;99408.56;5016074;28;20219;-80
2021/12/01 03:49:27;;;;;;;6.43;1.33;;;;;;;0.80;100.00;99400.00;5014634;28;20208;-81
2021/12/01 03:51:54;;;;;;;10.43;2.00;;;;;;;0.85;100.00;99397.41;5018462;28;20702;-80
2021/12/01 03:54:20;;;;;;;9.53;1.90;;;;;;;0.87;100.00;99395.69;5013038;28;20282;-80
2021/12/01 03:56:46;;;;;;;11.00;1.83;;;;;;;0.90;100.00;99403.38;5013996;28;20738;-80
2021/12/01 03:59:13;;;;;;;13.93;1.90;;;;;;;0.94;100.00;99389.63;5012292;28;20204;-80
2021/12/01 04:01:40;;;;;;;9.93;1.70;;;;;;;1.00;100.00;99389.59;5013515;28;20253;-80
2021/12/01 04:04:08;;;;;;;13.87;2.63;;;;;;;1.05;100.00;99392.13;5013641;28;20233;-81
2021/12/01 04:06:34;;;;;;;15.60;4.47;;;;;;;1.08;100.00;99392.13;5015960;28;20288;-81
2021/12/01 04:09:01;;;;;;;16.47;5.07;;;;;;;1.12;100.00;99381.78;5016612;28;20215;-81
2021/12/01 04:11:28;;;;;;;16.90;5.63;;;;;;;1.15;100.00;99375.81;5021253;28;20220;-81
2021/12/01 04:13:56;;;;;;;11.57;5.43;;;;;;;1.17;100.00;99375.78;5020698;28;20873;-81
2021/12/01 04:16:23;;;;;;;14.93;4.70;;;;;;;1.21;100.00;99369.75;5016628;28;20218;-81
2021/12/01 04:18:49;;;;;;;10.27;4.40;;;;;;;1.28;100.00;99363.69;5019202;28;20208;-81
2021/12/01 04:21:19;;;;;;;14.70;4.77;;;;;;;1.30;100.00;99365.41;5018860;28;20200;-79
2021/12/01 04:23:46;;;;;;;12.97;4.20;;;;;;;1.34;100.00;99353.41;5022248;28;20254;-80
2021/12/01 04:26:16;;;;;;;13.03;3.17;;;;;;;1.37;100.00;99353.34;5020834;28;20215;-79
2021/12/01 04:28:42;;;;;;;9.20;2.90;;;;;;;1.41;100.00;99349.91;5020368;28;20506;-80
2021/12/01 04:31:09;;;;;;;13.03;2.70;;;;;;;1.46;100.00;99349.84;5015322;28;20292;-80
2021/12/01 04:33:35;;;;;;;5.70;2.00;;;;;;;1.48;100.00;99346.41;5024482;28;20230;-80
2021/12/01 04:36:01;;;;;;;6.83;2.17;;;;;;;1.51;100.00;99337.81;5022317;28;20215;-80
2021/12/01 04:38:29;;;;;;;8.80;2.10;;;;;;;1.54;100.00;99332.66;5023234;28;20215;-81
2021/12/01 04:40:55;;;;;;;4.77;1.87;;;;;;;1.55;100.00;99328.34;5025315;28;20211;-80
2021/12/01 04:43:22;;;;;;;9.10;2.10;;;;;;;1.56;100.00;99325.78;5020343;28;20237;-80
2021/12/01 04:45:54;;;;;;;8.30;2.30;;;;;;;1.60;100.00;99318.88;5021870;28;20236;-80
2021/12/01 04:48:20;;;;;;;6.80;1.77;;;;;;;1.61;100.00;99307.75;5020056;28;20258;-80
2021/12/01 04:50:47;;;;;;;7.17;1.97;;;;;;;1.63;100.00;99306.84;5021289;28;20728;-80
2021/12/01 04:53:13;;;;;;;10.07;2.37;;;;;;;1.65;100.00;99300.00;5021969;28;20220;-80
2021/12/01 04:55:41;;;;;;;8.50;2.10;;;;;;;1.64;100.00;99293.16;5022919;28;20204;-81
2021/12/01 04:58:07;;;;;;;8.73;1.70;;;;;;;1.66;100.00;99280.28;5017366;28;20212;-82
2021/12/01 05:00:36;;;;;;;7.83;1.63;;;;;;;1.66;100.00;99276.00;5023245;28;20204;-80
2021/12/01 05:03:03;;;;;;;6.30;1.90;;;;;;;1.67;100.00;99263.97;5023417;28;20232;-80
2021/12/01 05:05:29;;;;;;;6.90;2.03;;;;;;;1.66;100.00;99268.28;5019282;28;20590;-81
2021/12/01 05:07:56;;;;;;;5.67;2.07;;;;;;;1.68;100.00;99265.69;5016181;28;20574;-81
2021/12/01 05:10:23;;;;;;;4.37;1.90;;;;;;;1.67;100.00;99259.72;5022069;28;20210;-80
2021/12/01 05:12:51;;;;;;;4.90;1.80;;;;;;;1.67;100.00;99248.56;5022705;28;20231;-80
2021/12/01 05:15:17;;;;;;;9.70;1.97;;;;;;;1.68;100.00;99253.69;5018101;28;20207;-79
2021/12/01 05:17:44;;;;;;;6.90;1.73;;;;;;;1.69;100.00;99241.72;5019080;28;20777;-79
2021/12/01 05:20:11;;;;;;;9.40;2.17;;;;;;;1.69;100.00;99239.16;5024005;28;20214;-79
2021/12/01 05:22:38;;;;;;;7.17;1.70;;;;;;;1.69;100.00;99229.72;5020458;28;20215;-79
2021/12/01 05:25:06;;;;;;;6.63;1.80;;;;;;;1.69;100.00;99222.00;5025738;28;20634;-80
2021/12/01 05:27:33;;;;;;;7.20;1.90;;;;;;;1.70;100.00;99221.09;5028687;28;20196;-80
2021/12/01 05:30:01;;;;;;;12.73;2.20;;;;;;;1.72;100.00;99212.53;5030324;28;20311;-80
2021/12/01 05:32:27;;;;;;;11.77;2.43;;;;;;;1.74;100.00;99205.66;5028824;28;20676;-80
2021/12/01 05:34:54;;;;;;;10.20;2.60;;;;;;;1.73;100.00;99204.81;5016987;28;20240;-81
2021/12/01 05:37:20;;;;;;;12.17;2.87;;;;;;;1.73;100.00;99191.97;5017360;28;20582;-81
2021/12/01 05:39:47;;;;;;;12.50;2.70;;;;;;;1.73;100.00;99191.97;5018574;28;20204;-82
2021/12/01 05:42:14;;;;;;;12.13;3.03;;;;;;;1.75;100.00;99185.09;5026242;28;20215;-79
2021/12/01 05:44:41;;;;;;;12.90;3.17;;;;;;;1.76;100.00;99183.34;5028410;28;20204;-79
2021/12/01 05:47:09;;;;;;;8.27;3.20;;;;;;;1.77;100.00;99180.78;5026578;28;20381;-81
2021/12/01 05:49:41;;;;;;;9.00;2.70;;;;;;;1.78;100.00;99174.78;5025587;28;20204;-82
2021/12/01 05:52:08;;;;;;;6.07;2.23;;;;;;;1.79;100.00;99162.75;5019478;28;20254;-82
2021/12/01 05:54:35;;;;;;;8.93;2.87;;;;;;;1.81;100.00;99159.31;5019572;28;20266;-80
2021/12/01 05:57:01;;;;;;;7.97;2.13;;;;;;;1.82;100.00;99155.84;5017844;28;20208;-80
2021/12/01 05:59:28;;;;;;;5.40;1.60;;;;;;;1.85;100.00;99144.69;5015645;28;20208;-82
2021/12/01 06:01:54;;;;;;;8.30;1.80;;;;;;;1.86;100.00;99138.66;5012456;28;20303;-81
2021/12/01 06:04:24;;;;;;;8.57;1.87;;;;;;;1.88;100.00;99136.94;5013710;28;20226;-80
2021/12/01 06:06:50;;;;;;;9.23;1.47;;;;;;;1.91;100.00;99130.91;5025370;28;20208;-79
2021/12/01 06:09:16;;;;;;;6.13;1.77;;;;;;;1.93;100.00;99127.44;5021256;28;20219;-80
2021/12/01 06:11:46;;;;;;;7.63;1.50;;;;;;;1.94;100.00;99121.44;5018266;28;20216;-80
2021/12/01 06:14:13;;;;;;;9.90;1.63;;;;;;;1.96;100.00;99109.41;5022752;28;20251;-79
2021/12/01 06:16:39;;;;;;;5.43;1.70;;;;;;;1.99;100.00;99111.09;5017419;28;20203;-80
2021/12/01 06:19:06;;;;;;;4.17;1.70;;;;;;;2.00;100.00;99103.31;5015294;28;20204;-80
2021/12/01 06:21:33;;;;;;;5.33;2.00;;;;;;;2.03;100.00;99092.16;5018762;28;20219;-81
2021/12/01 06:24:00;;;;;;;5.83;1.50;;;;;;;2.06;100.00;99092.97;5019241;28;20232;-80
2021/12/01 06:26:26;;;;;;;4.17;1.67;;;;;;;2.07;100.00;99089.50;5020469;28;20196;-80
2021/12/01 06:28:52;;;;;;;2.60;1.47;;;;;;;2.10;100.00;99080.06;5015941;28;20571;-80
2021/12/01 06:31:19;;;;;;;6.10;1.60;;;;;;;2.11;100.00;99081.75;5015610;28;20216;-80
2021/12/01 06:33:45;;;;;;;3.40;1.73;;;;;;;2.13;100.00;99068.00;5019672;28;20216;-80
2021/12/01 06:36:12;;;;;;;25.37;11.80;;;;;;;2.16;100.00;99065.34;5017086;28;20208;-80
2021/12/01 06:38:41;;;;;;;77.43;30.70;;;;;;;2.18;100.00;99057.63;5012038;28;20633;-80
2021/12/01 06:41:08;;;;;;;21.13;9.53;;;;;;;2.21;100.00;99058.41;5018406;28;20208;-79
2021/12/01 06:43:34;;;;;;;17.30;9.23;;;;;;;2.23;100.00;99066.97;5018248;28;20370;-79
2021/12/01 06:46:01;;;;;;;8.67;5.33;;;;;;;2.25;100.00;99056.63;5023827;28;20204;-79
2021/12/01 06:48:28;;;;;;;6.07;3.53;;;;;;;2.27;100.00;99055.75;5019730;28;20212;-79
2021/12/01 06:50:54;;;;;;;6.70;2.43;;;;;;;2.28;100.00;99049.72;5019842;28;20211;-79
2021/12/01 06:53:20;;;;;;;4.23;1.93;;;;;;;2.32;100.00;99050.50;5019121;28;20232;-81
2021/12/01 06:55:48;;;;;;;4.73;2.10;;;;;;;2.35;100.00;99041.91;5019548;28;20258;-81
2021/12/01 06:58:14;;;;;;;4.90;2.40;;;;;;;2.38;100.00;99042.69;5014969;28;20673;-81
2021/12/01 07:00:41;;;;;;;4.37;2.57;;;;;;;2.43;100.00;99034.91;5021917;28;20241;-81
2021/12/01 07:03:08;;;;;;;8.13;2.50;;;;;;;2.45;100.00;99030.56;5000595;28;20337;-81
2021/12/01 07:05:35;;;;;;;10.10;2.90;;;;;;;2.52;100.00;99036.47;5012530;28;20216;-81
2021/12/01 07:08:01;;;;;;;5.50;2.73;;;;;;;2.55;100.00;99031.22;5015668;28;20672;-81
2021/12/01 07:10:27;;;;;;;5.97;2.73;;;;;;;2.57;100.00;99027.78;5019972;28;20192;-80
2021/12/01 07:12:55;;;;;;;8.53;2.93;;;;;;;2.58;100.00;99016.59;5013116;28;20805;-81
2021/12/01 07:15:22;;;;;;;5.53;3.10;;;;;;;2.62;100.00;99009.66;5015401;28;20204;-80
2021/12/01 07:17:49;;;;;;;3.67;2.93;;;;;;;2.64;100.00;99011.34;5015549;28;20223;-80
2021/12/01 07:20:15;;;;;;;8.13;5.00;;;;;;;2.66;100.00;99003.59;5016795;28;20212;-81
2021/12/01 07:22:42;;;;;;;4.27;2.70;;;;;;;2.72;100.00;99007.75;5016892;28;20743;-81
2021/12/01 07:25:09;;;;;;;7.23;3.50;;;;;;;2.77;100.00;98999.06;5015682;28;20208;-81
2021/12/01 07:27:36;;;;;;;7.50;4.07;;;;;;;2.81;100.00;99002.41;5014715;28;20235;-80
2021/12/01 07:30:04;;;;;;;5.27;3.30;;;;;;;2.82;100.00;98994.66;5012890;28;20211;-81
2021/12/01 07:32:31;;;;;;;6.13;4.07;;;;;;;2.88;100.00;98990.28;5012448;28;20874;-80
2021/12/01 07:34:57;;;;;;;5.63;3.63;;;;;;;2.91;100.00;98983.34;5010445;28;20587;-81
2021/12/01 07:37:24;;;;;;;6.50;3.70;;;;;;;2.92;100.00;98976.44;5015343;28;20204;-82
2021/12/01 07:39:51;;;;;;;5.33;2.87;;;;;;;2.93;100.00;98960.13;5012070;28;20195;-80
2021/12/01 07:42:18;;;;;;;6.47;3.40;;;;;;;2.95;100.00;98961.78;5013787;28;20200;-81
2021/12/01 07:44:45;;;;;;;5.77;3.00;;;;;;;2.97;100.00;98964.31;5012789;28;20507;-80
2021/12/01 07:47:12;;;;;;;5.50;3.27;;;;;;;3.00;100.00;98966.84;5014679;28;20208;-82
2021/12/01 07:49:39;;;;;;;5.83;3.40;;;;;;;3.00;100.00;98957.38;5020823;28;20200;-82
2021/12/01 07:52:06;;;;;;;7.17;3.20;;;;;;;3.03;100.00;98965.03;5023344;28;20220;-81
2021/12/01 07:54:33;;;;;;;5.43;3.13;;;;;;;3.07;100.00;98959.84;5019817;28;20199;-81
2021/12/01 07:56:59;;;;;;;4.67;2.93;;;;;;;3.10;100.00;98962.34;5020710;28;20196;-82
2021/12/01 07:59:26;;;;;;;4.87;2.73;;;;;;;3.11;100.00;98957.13;5020815;28;20523;-80
2021/12/01 08:01:52;;;;;;;3.00;2.30;;;;;;;3.15;100.00;98953.63;5022032;28;20192;-81
2021/12/01 08:04:20;;;;;;;5.27;2.60;;;;;;;3.18;100.00;98947.56;5018648;28;20228;-81
2021/12/01 08:06:46;;;;;;;5.97;2.50;;;;;;;3.19;100.00;98946.69;5022337;28;20204;-81
2021/12/01 08:09:13;;;;;;;5.37;2.60;;;;;;;3.22;100.00;98944.03;5017688;28;20208;-80
2021/12/01 08:11:40;;;;;;;3.60;2.27;;;;;;;3.26;100.00;98939.66;5016674;28;20217;-82
2021/12/01 08:14:07;;;;;;;4.33;2.43;;;;;;;3.28;100.00;98932.75;5019237;28;20250;-81
2021/12/01 08:16:34;;;;;;;5.57;3.10;;;;;;;3.31;100.00;98936.09;5018688;28;20266;-83
2021/12/01 08:19:00;;;;;;;4.43;3.20;;;;;;;3.33;100.00;98929.19;5020113;28;20210;-83
2021/12/01 08:21:28;;;;;;;6.40;3.37;;;;;;;3.36;100.00;98923.09;5019169;28;20765;-80
2021/12/01 08:23:55;;;;;;;4.17;3.13;;;;;;;3.37;100.00;98915.31;5021175;28;20761;-80
2021/12/01 08:26:22;;;;;;;3.97;2.70;;;;;;;3.42;100.00;98915.22;5019442;28;20211;-82
2021/12/01 08:28:48;;;;;;;2.30;2.10;;;;;;;3.46;100.00;98918.56;5021741;28;20212;-81
2021/12/01 08:31:16;;;;;;;3.03;1.80;;;;;;;3.49;100.00;98911.63;5016066;28;20823;-82
2021/12/01 08:33:43;;;;;;;2.33;1.77;;;;;;;3.53;100.00;98902.06;5019227;28;20226;-82
2021/12/01 08:36:10;;;;;;;2.27;1.70;;;;;;;3.54;100.00;98896.88;5021654;28;20597;-81
2021/12/01 08:38:38;;;;;;;3.07;1.27;;;;;;;3.56;100.00;98889.97;5016916;28;20208;-81
2021/12/01 08:41:06;;;;;;;1.70;1.50;;;;;;;3.58;100.00;98895.91;5019591;28;20215;-81
2021/12/01 08:43:34;;;;;;;1.73;1.40;;;;;;;3.60;100.00;98893.31;5017440;28;20232;-80
2021/12/01 08:46:00;;;;;;;1.80;1.60;;;;;;;3.63;100.00;98884.66;5023465;28;20265;-82
2021/12/01 08:48:27;;;;;;;1.60;1.47;;;;;;;3.63;100.00;98885.50;5015342;28;20207;-80
2021/12/01 08:50:56;;;;;;;1.40;1.30;;;;;;;3.64;100.00;98878.59;5015913;28;20211;-82
2021/12/01 08:53:22;;;;;;;4.23;3.13;;;;;;;3.68;100.00;98880.25;5020110;28;20274;-81
2021/12/01 08:55:50;;;;;;;7.30;4.70;;;;;;;3.69;100.00;98875.03;5020920;28;20220;-81
2021/12/01 08:58:19;;;;;;;3.00;2.40;;;;;;;3.71;100.00;98870.69;5013610;28;20224;-82
2021/12/01 09:00:47;;;;;;;1.93;1.80;;;;;;;3.74;100.00;98867.19;5015945;28;20203;-80
2021/12/01 09:03:16;;;;;;;2.40;2.20;;;;;;;3.76;100.00;98868.84;5015175;28;20235;-81
2021/12/01 09:05:45;;;;;;;3.00;2.70;;;;;;;3.77;100.00;98859.38;5019454;28;20227;-81
2021/12/01 09:08:13;;;;;;;4.60;2.93;;;;;;;3.78;100.00;98861.03;5019989;28;20254;-82
2021/12/01 09:10:39;;;;;;;4.90;3.30;;;;;;;3.78;100.00;98855.88;5017023;28;20208;-81
2021/12/01 09:13:08;;;;;;;5.57;3.27;;;;;;;3.78;100.00;98853.31;5015022;28;20237;-82
2021/12/01 09:15:35;;;;;;;3.77;2.20;;;;;;;3.80;100.00;98848.97;5020129;28;20207;-83
2021/12/01 09:18:02;;;;;;;4.17;2.10;;;;;;;3.81;100.00;98850.66;5018933;28;20465;-82
2021/12/01 09:20:29;;;;;;;2.00;1.80;;;;;;;3.81;100.00;98853.22;5021876;28;20642;-82
2021/12/01 09:22:56;;;;;;;1.83;1.63;;;;;;;3.83;100.00;98853.19;5018665;28;20223;-82
2021/12/01 09:25:22;;;;;;;2.37;1.93;;;;;;;3.85;100.00;98849.69;5017227;28;20212;-81
2021/12/01 09:27:49;;;;;;;2.30;1.80;;;;;;;3.85;100.00;98848.84;5020316;28;20200;-81
2021/12/01 09:30:18;;;;;;;1.70;1.60;;;;;;;3.86;100.00;98851.38;5017091;28;20209;-82
2021/12/01 09:32:45;;;;;;;2.73;2.20;;;;;;;3.88;100.00;98847.03;5018658;28;20610;-82
2021/12/01 09:35:13;;;;;;;2.30;1.90;;;;;;;3.90;100.00;98839.25;5019603;28;20206;-81
2021/12/01 09:37:42;;;;;;;2.90;2.23;;;;;;;3.91;100.00;98825.47;5015998;28;20200;-81
2021/12/01 09:40:13;;;;;;;3.67;2.20;;;;;;;3.92;100.00;98811.69;5019208;28;20224;-81
2021/12/01 09:42:42;;;;;;;2.67;2.10;;;;;;;3.93;100.00;98813.38;5010745;28;20232;-81
2021/12/01 09:45:10;;;;;;;2.93;2.57;;;;;;;3.94;100.00;98810.78;5014897;28;20209;-80
2021/12/01 09:47:39;;;;;;;2.50;2.30;;;;;;;3.96;100.00;98808.16;5014701;28;20217;-81
2021/12/01 09:50:07;;;;;;;3.13;2.80;;;;;;;3.98;100.00;98796.88;5018161;28;20701;-79
2021/12/01 09:52:34;;;;;;;2.90;2.50;;;;;;;4.00;100.00;98794.28;5020243;28;20225;-82
2021/12/01 09:55:01;;;;;;;2.70;2.50;;;;;;;4.02;100.00;98794.22;5020999;28;20197;-81
2021/12/01 09:57:27;;;;;;;2.70;2.50;;;;;;;4.04;100.00;98785.53;5021403;28;20201;-81
2021/12/01 09:59:53;;;;;;;3.13;2.50;;;;;;;4.06;100.00;98781.19;5020177;28;20453;-81
2021/12/01 10:02:21;;;;;;;4.00;3.40;;;;;;;4.07;100.00;98764.84;5019433;28;20701;-81
2021/12/01 10:04:49;;;;;;;2.50;2.30;;;;;;;4.08;100.00;98758.81;5014109;28;20210;-81
2021/12/01 10:07:17;;;;;;;3.63;2.77;;;;;;;4.11;100.00;98747.53;5019132;28;20204;-81
2021/12/01 10:09:45;;;;;;;4.23;2.87;;;;;;;4.13;100.00;98738.88;5016437;28;21610;-81
2021/12/01 10:12:12;;;;;;;3.20;2.90;;;;;;;4.16;100.00;98723.28;5016641;28;20211;-81
2021/12/01 10:14:44;;;;;;;3.47;3.17;;;;;;;4.17;100.00;98730.16;5016140;28;20204;-80
2021/12/01 10:17:10;;;;;;;3.03;2.73;;;;;;;4.23;100.00;98729.09;5017406;28;20227;-81
2021/12/01 10:19:36;;;;;;;4.90;3.00;;;;;;;4.26;100.00;98712.72;5018014;28;20220;-81
2021/12/01 10:22:09;;;;;;;2.87;2.60;;;;;;;4.28;100.00;98709.19;5016932;28;20213;-82
2021/12/01 10:24:37;;;;;;;3.17;2.70;;;;;;;4.31;100.00;98708.22;5018649;28;20217;-80
2021/12/01 10:27:10;;;;;;;2.13;1.93;;;;;;;4.32;100.00;98702.19;5016258;28;20589;-80
2021/12/01 10:29:42;;;;;;;2.50;2.30;;;;;;;4.35;100.00;98707.25;5017553;28;20214;-81
2021/12/01 10:32:16;;;;;;;2.53;2.33;;;;;;;4.37;100.00;98695.16;5015636;28;20293;-80
2021/12/01 10:34:46;;;;;;;2.80;2.20;;;;;;;4.41;100.00;98686.41;5016310;28;20331;-81
2021/12/01 10:37:18;;;;;;;2.50;2.00;;;;;;;4.45;100.00;98689.72;5020800;28;20212;-80
2021/12/01 10:39:47;;;;;;;2.30;2.10;;;;;;;4.46;100.00;98683.69;5013620;28;20235;-81
2021/12/01 10:42:16;;;;;;;1.80;1.70;;;;;;;4.50;100.00;98674.94;5013445;28;20205;-81
2021/12/01 10:44:56;;;;;;;2.37;2.10;;;;;;;4.52;100.00;98666.28;5016678;28;20199;-81
2021/12/01 10:47:22;;;;;;;2.73;2.13;;;;;;;4.56;100.00;98667.00;5018989;28;20266;-79
2021/12/01 10:49:50;;;;;;;1.77;1.67;;;;;;;4.63;100.00;98665.09;5017483;28;20553;-80
2021/12/01 10:52:32;;;;;;;2.47;1.93;;;;;;;4.68;100.00;98650.28;5013580;28;20212;-80
2021/12/01 10:55:13;;;;;;;5.00;3.03;;;;;;;4.72;100.00;98657.03;5016431;28;20665;-79
2021/12/01 10:57:42;;;;;;;5.37;3.90;;;;;;;4.78;100.00;98653.38;5014696;28;20295;-80
2021/12/01 11:00:17;;;;;;;9.13;5.67;;;;;;;4.85;100.00;98654.84;5013855;28;20201;-81
2021/12/01 11:02:44;;;;;;;5.03;3.10;;;;;;;4.90;100.00;98642.63;5014032;28;20985;-81
2021/12/01 11:05:10;;;;;;;5.73;3.83;;;;;;;4.95;100.00;98648.50;5015155;28;20208;-80
2021/12/01 11:07:38;;;;;;;3.23;2.43;;;;;;;5.00;100.00;98644.00;5015031;28;20196;-81
2021/12/01 11:10:13;;;;;;;6.40;3.37;;;;;;;5.08;100.00;98630.81;5012566;28;20200;-81
2021/12/01 11:12:39;;;;;;;3.57;2.73;;;;;;;5.09;100.00;98632.50;5014499;28;20803;-81
2021/12/01 11:15:21;;;;;;;2.70;2.27;;;;;;;5.13;100.00;98622.00;5013194;28;20201;-82
2021/12/01 11:17:48;;;;;;;3.10;2.00;;;;;;;5.17;100.00;98617.59;5014965;28;20204;-80
2021/12/01 11:20:32;;;;;;;3.23;2.77;;;;;;;5.19;100.00;98607.16;5015064;28;20323;-82
2021/12/01 11:23:16;;;;;;;2.67;1.57;;;;;;;5.15;100.00;98597.84;5015715;28;20248;-80
2021/12/01 11:25:44;;;;;;;2.93;1.60;;;;;;;5.16;100.00;98595.22;5013183;28;20730;-80
2021/12/01 11:28:13;;;;;;;3.77;1.97;;;;;;;5.16;100.00;98597.81;5015250;28;20204;-82
2021/12/01 11:30:41;;;;;;;1.43;1.33;;;;;;;5.14;100.00;98581.53;5013548;28;20303;-80
2021/12/01 11:33:11;;;;;;;2.27;1.53;;;;;;;5.11;100.00;98582.47;5010244;28;20227;-80
2021/12/01 11:35:37;;;;;;;2.33;1.40;;;;;;;5.13;100.00;98580.66;5013078;28;20204;-82
2021/12/01 11:38:04;;;;;;;1.37;1.27;;;;;;;5.13;100.00;98572.91;5013018;28;20208;-80